Time;durP1;ratioP1;P1;durP2;ratioP2;P2;SDS_P1;SDS_P2;PMS_P1;PMS_P2;Temp;Humidity;BMP_temperature;BMP_pressure;BME280_temperature;BME280_humidity;BME280_pressure;Samples;Min_cycle;Max_cycle;Signal;HPM_P1;HPM_P2
2024/01/22 00:02:23;;;;;;;7.67;3.87;;;;;;;1.46;60.42;100984.72;5039658;28;20247;-86
2024/01/22 00:04:48;;;;;;;7.83;4.00;;;;;;;1.43;60.67;100986.41;5032839;28;20182;-87
2024/01/22 00:07:14;;;;;;;12.40;3.97;;;;;;;1.44;60.26;100985.56;5038083;28;20186;-87
2024/01/22 00:09:39;;;;;;;9.80;4.33;;;;;;;1.48;60.29;100974.41;5051626;28;20219;-86
2024/01/22 00:12:05;;;;;;;14.60;4.43;;;;;;;1.36;60.06;100984.59;5052973;28;20509;-86
2024/01/22 00:14:30;;;;;;;13.43;5.47;;;;;;;1.22;59.63;100982.69;5052564;28;20232;-86
2024/01/22 00:16:55;;;;;;;14.43;5.53;;;;;;;1.22;60.44;100982.69;5052902;28;20658;-86
2024/01/22 00:19:22;;;;;;;15.47;5.73;;;;;;;1.20;60.04;100988.66;5052288;28;20627;-86
2024/01/22 00:21:47;;;;;;;11.10;4.80;;;;;;;1.15;60.13;100986.00;5052882;28;20174;-86
2024/01/22 00:24:13;;;;;;;15.67;4.67;;;;;;;1.20;60.44;100988.66;5048691;28;20647;-86
2024/01/22 00:26:38;;;;;;;10.93;5.07;;;;;;;1.10;60.67;100985.06;5032950;28;20632;-86
2024/01/22 00:29:04;;;;;;;14.40;4.70;;;;;;;1.18;60.59;100985.16;5042572;28;20302;-86
2024/01/22 00:31:29;;;;;;;10.33;4.17;;;;;;;1.10;59.89;100991.97;5056390;28;20169;-86
2024/01/22 00:33:55;;;;;;;8.33;3.60;;;;;;;1.11;60.48;100991.97;5054968;28;20185;-86
2024/01/22 00:36:20;;;;;;;11.10;4.27;;;;;;;1.00;60.78;100984.91;5055153;28;20212;-86
2024/01/22 00:38:46;;;;;;;9.37;4.03;;;;;;;1.00;60.51;100987.47;5036314;28;20189;-86
2024/01/22 00:41:11;;;;;;;12.60;4.50;;;;;;;0.94;60.83;100992.56;5035256;28;20190;-86
2024/01/22 00:43:37;;;;;;;15.47;3.47;;;;;;;0.95;60.96;100989.13;5052365;28;20272;-86
2024/01/22 00:46:03;;;;;;;8.83;3.80;;;;;;;0.92;60.63;100991.66;5056458;28;20174;-86
2024/01/22 00:48:29;;;;;;;8.83;3.53;;;;;;;0.92;60.87;100989.06;5055611;28;20551;-86
2024/01/22 00:50:54;;;;;;;7.07;2.97;;;;;;;0.84;60.73;100993.28;5055930;28;20185;-87
2024/01/22 00:53:19;;;;;;;5.00;2.70;;;;;;;0.88;60.26;100995.91;5056571;28;20181;-87
2024/01/22 00:55:45;;;;;;;9.50;4.30;;;;;;;0.81;60.21;100988.06;5055985;28;20205;-87
2024/01/22 00:58:10;;;;;;;8.20;4.07;;;;;;;0.72;60.57;100987.88;5055939;28;20196;-87
2024/01/22 01:00:36;;;;;;;7.93;3.83;;;;;;;0.68;60.63;100991.28;5054934;28;20182;-87
2024/01/22 01:03:01;;;;;;;10.17;4.13;;;;;;;0.74;59.92;100991.34;5054695;28;20611;-87
2024/01/22 01:05:27;;;;;;;7.40;3.87;;;;;;;0.70;60.59;100982.72;5054625;28;20188;-87
2024/01/22 01:07:52;;;;;;;9.67;4.00;;;;;;;0.68;60.09;100986.13;5056333;28;20177;-87
2024/01/22 01:10:18;;;;;;;10.83;3.77;;;;;;;0.66;60.08;100992.94;5055624;28;20190;-87
2024/01/22 01:12:43;;;;;;;7.23;3.77;;;;;;;0.65;60.63;100988.63;5055488;28;20211;-87
2024/01/22 01:15:09;;;;;;;8.87;4.03;;;;;;;0.63;60.09;100987.75;5055486;28;20228;-87
2024/01/22 01:17:36;;;;;;;5.93;3.40;;;;;;;0.63;59.69;100981.72;5056140;28;20186;-86
2024/01/22 01:20:03;;;;;;;7.50;3.07;;;;;;;0.58;59.84;100985.94;5055575;28;20177;-88
2024/01/22 01:22:32;;;;;;;9.20;4.03;;;;;;;0.48;60.13;100993.50;5055504;28;20470;-87
2024/01/22 01:24:57;;;;;;;9.93;4.33;;;;;;;0.42;59.89;100994.25;5035494;28;20460;-87
2024/01/22 01:27:23;;;;;;;8.13;3.53;;;;;;;0.35;59.17;100986.38;5035473;28;20464;-87
2024/01/22 01:29:48;;;;;;;9.70;4.27;;;;;;;0.30;59.23;100999.22;5040826;28;20177;-87
2024/01/22 01:32:14;;;;;;;9.40;3.77;;;;;;;0.27;59.37;100994.00;5055344;28;20521;-87
2024/01/22 01:34:39;;;;;;;8.77;4.43;;;;;;;0.24;59.25;100993.06;5054205;28;20208;-87
2024/01/22 01:37:05;;;;;;;23.10;8.57;;;;;;;0.21;59.07;100991.28;5040427;28;20182;-87
2024/01/22 01:39:30;;;;;;;16.63;5.80;;;;;;;0.16;58.94;100989.50;5037222;28;20666;-87
2024/01/22 01:41:56;;;;;;;11.63;4.37;;;;;;;0.15;59.04;100990.31;5053853;28;20188;-87
2024/01/22 01:44:39;;;;;;;8.83;4.40;;;;;;;0.09;58.93;100985.91;5055059;28;20178;-87
2024/01/22 01:47:05;;;;;;;8.80;5.37;;;;;;;0.07;59.35;100979.88;5055377;28;20234;-87
2024/01/22 01:49:31;;;;;;;10.63;4.70;;;;;;;0.10;59.12;100974.78;5055004;28;20420;-87
2024/01/22 01:51:57;;;;;;;6.27;3.80;;;;;;;0.05;58.95;100975.53;5054861;28;20426;-87
2024/01/22 01:54:24;;;;;;;14.83;4.27;;;;;;;0.03;58.74;100978.06;5055197;28;20630;-87
2024/01/22 01:56:51;;;;;;;14.80;5.47;;;;;;;0.00;58.85;100973.72;5054865;28;20442;-87
2024/01/22 01:59:18;;;;;;;6.70;3.40;;;;;;;-0.02;58.94;100979.69;5037011;28;20860;-87
2024/01/22 02:01:43;;;;;;;17.80;6.10;;;;;;;-0.08;59.16;100979.56;5036477;28;20424;-87
2024/01/22 02:04:09;;;;;;;13.60;3.90;;;;;;;-0.07;59.20;100983.88;5054974;28;20419;-87
2024/01/22 02:06:34;;;;;;;15.20;5.30;;;;;;;-0.07;59.08;100982.19;5055305;28;20203;-87
2024/01/22 02:09:00;;;;;;;9.73;4.20;;;;;;;-0.08;59.18;100975.28;5037055;28;20542;-87
2024/01/22 02:11:25;;;;;;;17.53;7.10;;;;;;;-0.08;60.62;100969.28;5054477;28;20543;-87
2024/01/22 02:13:52;;;;;;;8.43;4.70;;;;;;;0.09;62.16;100978.19;5054299;28;20625;-87
2024/01/22 02:16:18;;;;;;;6.33;3.17;;;;;;;0.05;63.45;100976.41;5054434;28;20203;-86
2024/01/22 02:18:45;;;;;;;5.13;2.10;;;;;;;0.11;63.85;100965.31;5054179;28;20542;-86
2024/01/22 02:21:10;;;;;;;8.00;2.97;;;;;;;0.30;64.24;100964.81;5054270;28;20427;-86
2024/01/22 02:23:36;;;;;;;4.47;2.60;;;;;;;0.25;64.09;100962.16;5054587;28;20830;-86
2024/01/22 02:26:01;;;;;;;6.47;3.13;;;;;;;0.42;64.31;100958.16;5036539;28;20188;-86
2024/01/22 02:28:28;;;;;;;5.70;2.87;;;;;;;0.46;63.70;100952.22;5054514;28;20181;-87
2024/01/22 02:30:54;;;;;;;6.13;2.40;;;;;;;0.50;64.08;100951.41;5054398;28;20550;-86
2024/01/22 02:33:20;;;;;;;2.83;2.10;;;;;;;0.52;63.33;100952.28;5054462;28;20420;-86
2024/01/22 02:35:45;;;;;;;6.60;3.03;;;;;;;0.65;63.23;100949.94;5036412;28;20993;-87
2024/01/22 02:38:10;;;;;;;5.83;2.20;;;;;;;0.71;62.69;100956.03;5036277;28;20713;-86
2024/01/22 02:40:36;;;;;;;8.07;3.67;;;;;;;0.78;62.42;100952.75;5068884;28;20270;-86
2024/01/22 02:43:01;;;;;;;5.57;3.33;;;;;;;0.73;62.55;100944.06;5073230;28;20332;-86
2024/01/22 02:45:27;;;;;;;9.27;4.57;;;;;;;0.63;63.14;100942.16;5073742;28;20623;-86
2024/01/22 02:47:52;;;;;;;8.07;4.43;;;;;;;0.63;62.92;100941.31;5056300;28;20634;-86
2024/01/22 02:50:18;;;;;;;8.83;4.47;;;;;;;0.70;62.77;100945.72;5056672;28;20550;-87
2024/01/22 02:52:43;;;;;;;12.33;4.57;;;;;;;0.59;63.14;100943.84;5073687;28;20177;-86
2024/01/22 02:55:08;;;;;;;7.57;4.23;;;;;;;0.57;62.19;100945.53;5073241;28;20207;-86
2024/01/22 02:57:34;;;;;;;12.23;4.67;;;;;;;0.61;62.74;100947.31;5073361;28;20189;-86
2024/01/22 02:59:59;;;;;;;9.77;4.67;;;;;;;0.70;62.24;100946.59;5073658;28;20611;-87
2024/01/22 03:02:25;;;;;;;8.37;4.60;;;;;;;0.66;62.20;100946.50;5055941;28;20532;-87
2024/01/22 03:04:50;;;;;;;7.30;4.27;;;;;;;0.71;62.62;100952.63;5073779;28;20199;-87
2024/01/22 03:07:16;;;;;;;11.30;5.23;;;;;;;0.73;61.69;100958.66;5073514;28;20190;-87
2024/01/22 03:09:41;;;;;;;7.33;4.43;;;;;;;0.71;60.09;100965.53;5073472;28;20630;-87
2024/01/22 03:12:07;;;;;;;6.87;3.00;;;;;;;0.35;58.91;100966.63;5074017;28;20219;-87
2024/01/22 03:14:32;;;;;;;17.60;5.53;;;;;;;0.31;58.64;100970.00;5073118;28;20211;-87
2024/01/22 03:16:57;;;;;;;7.43;3.37;;;;;;;0.46;58.41;100978.00;5073351;28;20674;-87
2024/01/22 03:19:23;;;;;;;6.57;3.57;;;;;;;0.52;57.86;100967.78;5055123;28;20183;-87
2024/01/22 03:21:48;;;;;;;8.87;3.03;;;;;;;0.58;56.88;100970.47;5073842;28;20184;-87
2024/01/22 03:24:14;;;;;;;9.27;3.33;;;;;;;0.54;57.30;100968.69;5055121;28;20185;-87
2024/01/22 03:26:39;;;;;;;14.17;4.93;;;;;;;0.47;58.61;100969.41;5073480;28;20165;-87
2024/01/22 03:29:05;;;;;;;15.00;6.93;;;;;;;0.35;59.75;100971.78;5073456;28;20180;-87
2024/01/22 03:31:32;;;;;;;14.07;6.50;;;;;;;0.41;60.91;100981.34;5072902;28;20624;-87
2024/01/22 03:33:57;;;;;;;13.33;7.17;;;;;;;0.43;61.44;100977.94;5073131;28;20187;-87
2024/01/22 03:36:24;;;;;;;12.07;6.13;;;;;;;0.44;61.65;100965.94;5072538;28;20469;-86
2024/01/22 03:38:50;;;;;;;8.93;3.93;;;;;;;0.44;62.27;100971.09;5073209;28;20177;-86
2024/01/22 03:41:15;;;;;;;6.70;4.67;;;;;;;0.37;62.11;100974.38;5072827;28;20469;-86
2024/01/22 03:43:42;;;;;;;10.97;6.03;;;;;;;0.35;62.99;100981.22;5073288;28;20425;-87
2024/01/22 03:46:11;;;;;;;12.53;5.73;;;;;;;0.44;63.21;100973.66;5072624;28;20183;-87
2024/01/22 03:48:36;;;;;;;7.10;5.17;;;;;;;0.42;63.13;100983.94;5072704;28;20430;-86
2024/01/22 03:51:02;;;;;;;12.37;5.33;;;;;;;0.48;62.83;100975.44;5055282;28;20480;-87
2024/01/22 03:53:27;;;;;;;15.83;5.57;;;;;;;0.55;62.53;100979.88;5072916;28;20178;-87
2024/01/22 03:55:53;;;;;;;10.63;5.87;;;;;;;0.56;63.26;100984.19;5072729;28;20279;-87
2024/01/22 03:58:19;;;;;;;9.57;5.63;;;;;;;0.49;63.15;100974.63;5055228;28;20181;-86
2024/01/22 04:00:44;;;;;;;15.93;7.03;;;;;;;0.41;63.42;100984.81;5072414;28;20632;-87
2024/01/22 04:03:10;;;;;;;10.33;5.27;;;;;;;0.47;63.50;100984.03;5072842;28;20200;-87
2024/01/22 04:05:35;;;;;;;19.67;7.70;;;;;;;0.52;63.69;100995.31;5074819;28;20175;-87
2024/01/22 04:08:00;;;;;;;12.50;6.33;;;;;;;0.63;63.32;100989.47;5076415;28;20560;-87
2024/01/22 04:10:26;;;;;;;14.47;8.47;;;;;;;0.71;62.71;100991.34;5076875;28;20270;-87
2024/01/22 04:12:54;;;;;;;14.70;6.93;;;;;;;0.74;62.41;100987.06;5076245;28;20198;-86
2024/01/22 04:15:20;;;;;;;17.03;6.97;;;;;;;0.69;62.10;100993.88;5076521;28;20206;-87
2024/01/22 04:17:45;;;;;;;12.20;8.10;;;;;;;0.63;62.72;100982.59;5076706;28;20483;-87
2024/01/22 04:20:11;;;;;;;15.87;5.97;;;;;;;0.52;63.18;100996.16;5076715;28;20175;-87
2024/01/22 04:22:36;;;;;;;12.87;7.00;;;;;;;0.52;63.23;101003.06;5076843;28;20182;-87
2024/01/22 04:25:03;;;;;;;15.43;7.33;;;;;;;0.60;62.88;100994.56;5075985;28;20234;-87
2024/01/22 04:27:28;;;;;;;18.53;7.77;;;;;;;0.63;62.58;100991.19;5077425;28;20648;-86
2024/01/22 04:29:54;;;;;;;14.43;6.43;;;;;;;0.56;62.76;100990.22;5076311;28;20432;-87
2024/01/22 04:32:19;;;;;;;14.97;6.40;;;;;;;0.58;62.79;100983.38;5076481;28;20245;-87
2024/01/22 04:34:46;;;;;;;16.77;6.47;;;;;;;0.52;63.04;100990.16;5058608;28;20226;-86
2024/01/22 04:37:12;;;;;;;18.07;6.53;;;;;;;0.50;63.38;100987.53;5076232;28;20172;-87
2024/01/22 04:39:39;;;;;;;15.13;7.97;;;;;;;0.43;63.33;100996.00;5076059;28;20440;-86
2024/01/22 04:42:05;;;;;;;12.60;6.93;;;;;;;0.41;63.39;101002.84;5076323;28;20501;-86
2024/01/22 04:44:30;;;;;;;13.67;6.90;;;;;;;0.38;63.58;101001.91;5076041;28;20512;-86
2024/01/22 04:46:56;;;;;;;13.83;6.53;;;;;;;0.44;63.70;101002.91;5076293;28;20187;-86
2024/01/22 04:49:22;;;;;;;10.83;5.60;;;;;;;0.42;63.91;101007.16;5058554;28;20175;-86
2024/01/22 04:51:48;;;;;;;12.70;6.23;;;;;;;0.44;64.15;101010.66;5076375;28;20479;-86
2024/01/22 04:54:13;;;;;;;10.57;7.33;;;;;;;0.48;64.24;101017.59;5059189;28;20183;-86
2024/01/22 04:56:44;;;;;;;14.80;7.23;;;;;;;0.59;63.88;101018.66;5072812;28;20210;-86
2024/01/22 04:59:10;;;;;;;13.73;7.00;;;;;;;0.64;63.77;101016.16;5075955;28;20188;-87
2024/01/22 05:01:36;;;;;;;13.27;6.87;;;;;;;0.68;63.45;101017.97;5075824;28;20423;-87
2024/01/22 05:04:02;;;;;;;17.07;7.27;;;;;;;0.74;63.21;101017.16;5058281;28;20652;-86
2024/01/22 05:06:28;;;;;;;15.77;7.07;;;;;;;0.73;63.06;101016.31;5044670;28;20180;-87
2024/01/22 05:08:53;;;;;;;25.13;9.13;;;;;;;0.70;62.77;101020.56;5038250;28;20431;-87
2024/01/22 05:11:19;;;;;;;23.03;9.60;;;;;;;0.68;62.98;101024.81;5059095;28;20187;-87
2024/01/22 05:13:52;;;;;;;22.83;10.20;;;;;;;0.66;62.25;101032.53;5058317;28;20629;-87
2024/01/22 05:16:18;;;;;;;12.63;6.17;;;;;;;0.70;62.32;101024.00;5074581;28;20205;-87
2024/01/22 05:18:45;;;;;;;18.57;7.37;;;;;;;0.71;62.27;101014.56;5075332;28;20425;-87
2024/01/22 05:21:11;;;;;;;17.43;6.03;;;;;;;0.69;61.88;101023.97;5075599;28;20430;-87
2024/01/22 05:23:37;;;;;;;13.30;5.47;;;;;;;0.52;61.96;101021.94;5075167;28;20422;-86
2024/01/22 05:26:03;;;;;;;11.37;5.07;;;;;;;0.42;62.28;101019.22;5075082;28;21001;-87
2024/01/22 05:28:28;;;;;;;13.70;5.37;;;;;;;0.39;62.17;101025.16;5075425;28;20470;-86
2024/01/22 05:30:54;;;;;;;13.53;6.30;;;;;;;0.34;62.38;101015.63;5075657;28;20421;-86
2024/01/22 05:33:19;;;;;;;12.63;5.53;;;;;;;0.21;62.89;101019.66;5074937;28;20269;-87
2024/01/22 05:35:45;;;;;;;9.93;4.87;;;;;;;0.24;63.04;101024.88;5075282;28;20241;-87
2024/01/22 05:38:10;;;;;;;9.10;4.70;;;;;;;0.25;62.40;101015.44;5057309;28;20266;-86
2024/01/22 05:40:36;;;;;;;11.63;4.43;;;;;;;0.26;62.48;101018.03;5075505;28;20211;-86
2024/01/22 05:43:01;;;;;;;8.60;3.77;;;;;;;0.28;62.24;101016.38;5057307;28;20662;-86
2024/01/22 05:45:26;;;;;;;13.97;5.70;;;;;;;0.32;62.15;101028.47;5075149;28;20176;-86
2024/01/22 05:47:53;;;;;;;12.27;4.97;;;;;;;0.26;61.69;101019.75;5057236;28;20200;-87
2024/01/22 05:50:18;;;;;;;11.23;5.63;;;;;;;0.29;62.09;101027.56;5075032;28;20235;-87
2024/01/22 05:52:44;;;;;;;9.03;5.20;;;;;;;0.33;61.37;101025.06;5075072;28;20455;-87
2024/01/22 05:55:09;;;;;;;9.27;4.50;;;;;;;0.33;61.11;101025.06;5074586;28;20190;-87
2024/01/22 05:57:35;;;;;;;9.60;4.43;;;;;;;0.22;61.15;101029.13;5057251;28;20655;-87
2024/01/22 06:00:09;;;;;;;9.03;4.97;;;;;;;0.25;61.14;101018.00;5074676;28;20180;-86
2024/01/22 06:02:34;;;;;;;13.80;4.90;;;;;;;0.26;61.27;101023.19;5075144;28;20261;-86
2024/01/22 06:05:00;;;;;;;11.03;5.30;;;;;;;0.33;61.03;101032.78;5074865;28;20968;-87
2024/01/22 06:07:26;;;;;;;10.00;4.13;;;;;;;0.46;61.13;101032.19;5074747;28;20175;-87
2024/01/22 06:09:51;;;;;;;10.80;4.73;;;;;;;0.57;60.31;101035.84;5075193;28;20170;-87
2024/01/22 06:12:17;;;;;;;10.70;3.70;;;;;;;0.54;60.37;101033.19;5054507;28;20176;-87
2024/01/22 06:14:43;;;;;;;8.83;4.67;;;;;;;0.58;60.61;101042.72;5036868;28;20217;-87
2024/01/22 06:17:09;;;;;;;11.20;4.70;;;;;;;0.69;60.47;101040.31;5053315;28;20442;-86
2024/01/22 06:19:35;;;;;;;13.73;5.70;;;;;;;0.75;59.78;101039.56;5061931;28;20259;-87
2024/01/22 06:22:00;;;;;;;11.73;5.43;;;;;;;0.82;59.83;101029.38;5056754;28;20445;-87
2024/01/22 06:24:26;;;;;;;16.67;5.73;;;;;;;0.91;59.41;101036.41;5074286;28;20255;-87
2024/01/22 06:26:52;;;;;;;22.33;6.00;;;;;;;0.91;58.27;101032.13;5074349;28;20576;-87
2024/01/22 06:29:18;;;;;;;16.77;7.27;;;;;;;1.00;58.59;101036.53;5073957;28;20188;-87
2024/01/22 06:31:43;;;;;;;12.83;5.43;;;;;;;1.50;57.64;101035.59;5074494;28;20415;-87
2024/01/22 06:34:09;;;;;;;8.03;4.27;;;;;;;2.07;55.97;101035.47;5056534;28;20168;-86
2024/01/22 06:36:34;;;;;;;7.43;3.63;;;;;;;2.42;54.22;101026.41;5056017;28;20205;-87
2024/01/22 06:39:00;;;;;;;11.03;5.63;;;;;;;2.45;53.40;101033.31;5056377;28;20209;-87
2024/01/22 06:41:25;;;;;;;6.40;3.43;;;;;;;2.37;53.61;101032.38;5073726;28;20176;-87
2024/01/22 06:43:51;;;;;;;8.47;3.17;;;;;;;2.12;53.19;101027.78;5074037;28;20181;-86
2024/01/22 06:46:16;;;;;;;9.87;5.20;;;;;;;2.21;53.54;101043.41;5073928;28;20165;-87
2024/01/22 06:48:42;;;;;;;6.63;3.70;;;;;;;2.45;53.36;101036.78;5073683;28;20184;-86
2024/01/22 06:51:09;;;;;;;9.17;4.10;;;;;;;2.99;53.75;101044.19;5073814;28;20630;-87
2024/01/22 06:53:35;;;;;;;6.80;4.13;;;;;;;3.71;51.44;101043.84;5073560;28;20284;-87
2024/01/22 06:56:00;;;;;;;8.97;3.87;;;;;;;4.53;49.83;101038.09;5073703;28;20717;-87
2024/01/22 06:58:25;;;;;;;6.53;3.40;;;;;;;5.48;49.04;101025.97;5055542;28;20185;-88
2024/01/22 07:00:51;;;;;;;16.20;4.37;;;;;;;6.03;46.42;101025.84;5055975;28;20187;-89
2024/01/22 07:03:17;;;;;;;12.37;4.97;;;;;;;6.18;45.11;101025.81;5073405;28;20175;-87
2024/01/22 07:05:44;;;;;;;11.43;5.43;;;;;;;6.66;44.70;101019.41;5073123;28;20237;-87
2024/01/22 07:08:10;;;;;;;10.03;4.20;;;;;;;7.33;42.76;101017.16;5055860;28;20169;-87
2024/01/22 07:10:35;;;;;;;8.90;4.20;;;;;;;8.00;41.59;101019.88;5060251;28;20631;-87
2024/01/22 07:13:01;;;;;;;7.13;3.20;;;;;;;8.34;38.95;101015.13;5059723;28;20623;-86
2024/01/22 07:15:26;;;;;;;9.60;4.43;;;;;;;8.07;40.17;101021.53;5073921;28;20204;-86
2024/01/22 07:17:52;;;;;;;8.93;4.13;;;;;;;7.73;39.24;101015.84;5073407;28;20173;-86
2024/01/22 07:20:17;;;;;;;8.33;3.97;;;;;;;7.58;40.95;101026.44;5073193;28;20185;-87
2024/01/22 07:22:45;;;;;;;9.90;4.63;;;;;;;6.94;41.05;101031.41;5073573;28;20185;-87
2024/01/22 07:25:10;;;;;;;8.33;3.97;;;;;;;6.60;41.93;101032.50;5073152;28;20521;-87
2024/01/22 07:27:39;;;;;;;7.40;3.80;;;;;;;6.21;42.39;101036.16;5052156;28;20259;-87
2024/01/22 07:30:14;;;;;;;11.20;3.73;;;;;;;5.78;42.97;101037.19;5073214;28;20182;-86
2024/01/22 07:32:42;;;;;;;6.63;3.13;;;;;;;5.38;43.63;101039.88;5073352;28;20177;-86
2024/01/22 07:35:10;;;;;;;8.37;4.00;;;;;;;4.93;44.69;101045.06;5055500;28;20205;-86
2024/01/22 07:37:41;;;;;;;6.47;3.40;;;;;;;4.90;45.63;101039.91;5073122;28;20172;-87
2024/01/22 07:40:09;;;;;;;8.47;3.93;;;;;;;4.87;45.66;101040.72;5054365;28;20283;-86
2024/01/22 07:42:35;;;;;;;9.30;3.40;;;;;;;4.69;45.38;101051.09;5072966;28;20522;-86
2024/01/22 07:45:01;;;;;;;9.37;4.03;;;;;;;4.58;46.53;101051.97;5072458;28;20176;-86
2024/01/22 07:47:27;;;;;;;7.40;3.50;;;;;;;4.46;47.20;101051.91;5073059;28;20642;-85
2024/01/22 07:49:53;;;;;;;7.27;3.33;;;;;;;4.44;47.85;101061.44;5073014;28;20177;-86
2024/01/22 07:52:19;;;;;;;8.30;3.70;;;;;;;4.21;47.93;101046.69;5072989;28;20247;-85
2024/01/22 07:54:44;;;;;;;8.60;3.50;;;;;;;4.05;48.09;101050.06;5072762;28;20256;-85
2024/01/22 07:57:10;;;;;;;7.00;3.90;;;;;;;3.80;49.20;101053.38;5072990;28;20572;-85
2024/01/22 07:59:38;;;;;;;9.73;3.80;;;;;;;3.63;49.54;101045.53;5072979;28;20169;-85
2024/01/22 08:02:04;;;;;;;5.80;3.00;;;;;;;3.68;50.26;101049.00;5072630;28;20181;-85
2024/01/22 08:04:33;;;;;;;6.20;3.43;;;;;;;3.94;50.31;101056.06;5055318;28;20180;-85
2024/01/22 08:07:00;;;;;;;8.07;3.93;;;;;;;3.92;50.17;101061.25;5055006;28;20260;-86
2024/01/22 08:09:35;;;;;;;4.70;2.40;;;;;;;3.78;49.70;101054.22;5072911;28;20165;-85
2024/01/22 08:12:04;;;;;;;6.37;3.80;;;;;;;3.67;51.11;101055.03;5072681;28;20180;-86
2024/01/22 08:14:33;;;;;;;7.80;3.47;;;;;;;3.90;50.31;101057.78;5072893;28;20673;-85
2024/01/22 08:16:59;;;;;;;6.87;3.53;;;;;;;4.12;51.31;101051.81;5072570;28;20205;-85
2024/01/22 08:19:25;;;;;;;8.73;3.73;;;;;;;4.32;51.39;101049.31;5072397;28;20599;-85
2024/01/22 08:21:50;;;;;;;16.03;5.10;;;;;;;4.54;50.51;101042.41;5072867;28;20195;-85
2024/01/22 08:24:15;;;;;;;13.87;5.23;;;;;;;4.77;49.96;101041.59;5072949;28;20653;-85
2024/01/22 08:26:42;;;;;;;5.57;3.37;;;;;;;4.76;48.92;101039.00;5072870;28;20177;-85
2024/01/22 08:29:07;;;;;;;7.57;3.57;;;;;;;4.85;50.62;101039.00;5072816;28;20165;-85
2024/01/22 08:31:33;;;;;;;11.07;4.93;;;;;;;5.06;50.04;101040.78;5072401;28;20180;-85
2024/01/22 08:34:00;;;;;;;6.87;2.93;;;;;;;5.29;49.37;101044.22;5073073;28;20173;-85
2024/01/22 08:36:25;;;;;;;6.47;2.83;;;;;;;5.31;48.24;101040.75;5072601;28;20671;-85
2024/01/22 08:38:51;;;;;;;6.57;3.37;;;;;;;5.36;47.48;101045.94;5072642;28;20318;-85
2024/01/22 08:41:16;;;;;;;7.90;3.60;;;;;;;5.46;47.38;101042.44;5072696;28;20238;-85
2024/01/22 08:43:42;;;;;;;10.03;4.00;;;;;;;5.46;47.07;101045.94;5072512;28;20172;-85
2024/01/22 08:46:07;;;;;;;9.23;3.17;;;;;;;5.51;47.25;101040.72;5072675;28;20210;-84
2024/01/22 08:48:32;;;;;;;11.53;4.50;;;;;;;5.40;47.55;101040.72;5072452;28;20177;-85
2024/01/22 08:50:58;;;;;;;9.00;4.27;;;;;;;5.51;48.78;101041.59;5073456;28;20180;-84
2024/01/22 08:53:23;;;;;;;6.63;3.23;;;;;;;5.45;47.32;101033.78;5076355;28;20167;-85
2024/01/22 08:55:49;;;;;;;8.83;3.40;;;;;;;5.28;47.42;101043.34;5058495;28;20307;-85
2024/01/22 08:58:15;;;;;;;9.30;4.20;;;;;;;5.25;46.41;101032.94;5076057;28;20314;-85
2024/01/22 09:00:41;;;;;;;6.73;3.07;;;;;;;5.02;46.24;101029.50;5076284;28;20172;-85
2024/01/22 09:03:06;;;;;;;13.27;3.73;;;;;;;5.08;47.06;101019.13;5076175;28;20173;-85
2024/01/22 09:05:32;;;;;;;10.23;3.90;;;;;;;5.04;46.21;101024.28;5076087;28;20622;-84
2024/01/22 09:07:57;;;;;;;11.67;3.73;;;;;;;5.04;47.28;101021.69;5075786;28;20634;-84
2024/01/22 09:10:23;;;;;;;7.40;3.30;;;;;;;5.18;47.31;101018.22;5076305;28;20614;-84
2024/01/22 09:12:48;;;;;;;5.87;2.30;;;;;;;5.19;46.27;101014.75;5076263;28;20174;-84
2024/01/22 09:15:17;;;;;;;10.67;3.10;;;;;;;5.25;46.05;101012.16;5075748;28;20597;-84
2024/01/22 09:17:43;;;;;;;6.97;2.90;;;;;;;5.26;46.12;101013.91;5075879;28;20183;-84
2024/01/22 09:20:09;;;;;;;9.07;2.60;;;;;;;5.37;46.82;101006.09;5075490;28;20599;-84
2024/01/22 09:22:35;;;;;;;6.00;2.27;;;;;;;5.70;46.86;101000.78;5075711;28;20165;-84
2024/01/22 09:25:01;;;;;;;5.80;3.17;;;;;;;5.88;45.42;100994.66;5075705;28;20284;-84
2024/01/22 09:27:26;;;;;;;7.20;2.50;;;;;;;5.84;45.65;100986.00;5075727;28;20175;-84
2024/01/22 09:29:51;;;;;;;6.20;3.20;;;;;;;5.88;44.26;100981.66;5058851;28;20184;-84
2024/01/22 09:32:18;;;;;;;8.60;3.10;;;;;;;5.78;45.06;100982.53;5038072;28;20177;-84
2024/01/22 09:34:44;;;;;;;7.60;2.87;;;;;;;5.71;45.34;100981.72;5051019;28;20173;-84
2024/01/22 09:37:09;;;;;;;13.77;4.13;;;;;;;5.74;45.50;100973.03;5075841;28;20547;-84
2024/01/22 09:39:35;;;;;;;11.43;4.03;;;;;;;5.65;44.73;100981.72;5075343;28;20537;-84
2024/01/22 09:42:02;;;;;;;5.90;2.53;;;;;;;5.25;45.42;100977.47;5075382;28;20172;-84
2024/01/22 09:44:27;;;;;;;6.37;3.03;;;;;;;5.34;45.96;100970.56;5075471;28;20201;-84
2024/01/22 09:46:53;;;;;;;7.03;3.00;;;;;;;5.40;44.98;100983.50;5075153;28;20550;-84
2024/01/22 09:49:19;;;;;;;9.13;4.10;;;;;;;5.56;45.63;100977.41;5075349;28;20242;-84
2024/01/22 09:51:45;;;;;;;9.87;3.87;;;;;;;5.59;46.33;100973.94;5075285;28;20173;-84
2024/01/22 09:54:12;;;;;;;8.27;3.80;;;;;;;5.55;45.75;100961.81;5057353;28;20514;-84
2024/01/22 09:56:39;;;;;;;6.57;3.27;;;;;;;5.38;45.81;100961.84;5057150;28;20195;-84
2024/01/22 09:59:16;;;;;;;8.77;3.97;;;;;;;5.58;46.24;100960.06;5075179;28;20173;-84
2024/01/22 10:01:42;;;;;;;7.60;2.90;;;;;;;5.60;44.85;100952.25;5058048;28;20230;-84
2024/01/22 10:04:11;;;;;;;8.57;3.70;;;;;;;5.54;45.30;100953.16;5056130;28;20194;-84
2024/01/22 10:06:39;;;;;;;9.50;4.07;;;;;;;5.48;46.28;100947.94;5057370;28;20173;-84
2024/01/22 10:09:05;;;;;;;7.73;3.73;;;;;;;5.77;46.13;100936.56;5075255;28;20173;-84
2024/01/22 10:11:31;;;;;;;8.60;3.87;;;;;;;5.89;47.15;100933.97;5074464;28;20238;-84
2024/01/22 10:13:57;;;;;;;5.93;3.57;;;;;;;6.08;46.07;100930.34;5051900;28;21580;-84
2024/01/22 10:16:26;;;;;;;6.40;2.80;;;;;;;6.30;46.20;100931.09;5032433;28;20216;-84
2024/01/22 10:18:57;;;;;;;17.73;4.10;;;;;;;6.53;44.62;100927.47;5047593;28;20188;-84
2024/01/22 10:21:23;;;;;;;10.37;3.70;;;;;;;6.68;44.77;100922.13;5056520;28;20185;-84
2024/01/22 10:23:59;;;;;;;9.13;3.93;;;;;;;6.72;44.75;100916.03;5074893;28;20173;-84
2024/01/22 10:26:24;;;;;;;8.97;3.97;;;;;;;6.92;44.87;100917.59;5074808;28;20179;-84
2024/01/22 10:28:51;;;;;;;7.17;3.37;;;;;;;7.07;44.15;100913.09;5056902;28;20593;-84
2024/01/22 10:31:17;;;;;;;10.23;3.87;;;;;;;7.00;44.15;100906.19;5074835;28;20172;-84
2024/01/22 10:33:42;;;;;;;7.97;3.80;;;;;;;7.00;45.21;100903.56;5057196;28;20173;-84
2024/01/22 10:36:19;;;;;;;7.80;3.40;;;;;;;7.27;45.49;100902.44;5056750;28;20663;-84
2024/01/22 10:38:46;;;;;;;6.93;2.97;;;;;;;7.27;43.73;100895.47;5074793;28;20173;-84
2024/01/22 10:41:20;;;;;;;8.33;3.50;;;;;;;7.28;42.71;100893.75;5057187;28;20209;-84
2024/01/22 10:43:46;;;;;;;7.00;3.47;;;;;;;7.22;44.71;100888.59;5056925;28;20176;-84
2024/01/22 10:46:12;;;;;;;9.80;3.57;;;;;;;7.25;43.40;100883.34;5055995;28;20174;-84
2024/01/22 10:48:38;;;;;;;6.63;2.90;;;;;;;7.23;44.12;100872.91;5056133;28;20211;-84
2024/01/22 10:51:07;;;;;;;7.47;2.97;;;;;;;7.33;44.21;100873.69;5056544;28;20185;-84
2024/01/22 10:53:32;;;;;;;7.60;3.47;;;;;;;7.13;44.72;100870.41;5033247;28;20173;-84
2024/01/22 10:56:04;;;;;;;9.20;3.90;;;;;;;7.31;43.42;100859.81;5056361;28;20291;-84
2024/01/22 10:58:41;;;;;;;7.23;3.60;;;;;;;7.33;44.05;100863.25;5056405;28;20168;-84
2024/01/22 11:01:17;;;;;;;9.70;3.13;;;;;;;7.44;42.79;100850.94;5055947;28;20196;-84
2024/01/22 11:03:46;;;;;;;13.67;4.30;;;;;;;7.56;44.12;100836.84;5056308;28;20717;-84
2024/01/22 11:06:14;;;;;;;5.10;2.93;;;;;;;7.54;42.32;100836.88;5056237;28;20188;-84
2024/01/22 11:08:42;;;;;;;6.43;3.33;;;;;;;7.54;42.37;100836.03;5056067;28;20328;-84
2024/01/22 11:11:12;;;;;;;7.60;2.77;;;;;;;7.65;42.01;100839.34;5033173;28;20170;-85
2024/01/22 11:13:37;;;;;;;8.43;3.20;;;;;;;7.57;42.70;100839.47;5016408;28;20241;-84
2024/01/22 11:16:03;;;;;;;7.23;2.80;;;;;;;7.57;43.25;100833.38;5025031;28;20201;-84
2024/01/22 11:18:29;;;;;;;7.73;3.93;;;;;;;7.69;43.01;100834.06;5053652;28;20536;-84
2024/01/22 11:21:20;;;;;;;6.90;2.57;;;;;;;7.74;42.35;100834.00;5036146;28;20260;-84
2024/01/22 11:24:05;;;;;;;8.07;3.33;;;;;;;7.88;42.81;100825.09;5050227;28;20169;-84
2024/01/22 11:26:32;;;;;;;10.90;4.07;;;;;;;8.27;43.01;100835.84;5054903;28;20558;-84